createdAt,value
2022-12-23T00:00:23.408Z,22.38
2022-12-23T00:01:30.419Z,22.40
2022-12-23T00:02:32.045Z,20.38
2022-12-23T00:03:34.149Z,21.40
2022-12-23T00:04:35.734Z,22.00
2022-12-23T00:05:38.776Z,20.05
2022-12-23T00:06:40.192Z,20.08
2022-12-23T00:07:41.597Z,21.08
2022-12-23T00:08:43.333Z,21.00
2022-12-23T00:09:44.766Z,21.80
2022-12-23T00:10:50.338Z,20.67
2022-12-23T00:12:10.045Z,20.88
2022-12-23T00:13:30.387Z,17.88
2022-12-23T00:14:50.324Z,17.17
2022-12-23T00:16:00.173Z,16.65
2022-12-23T00:17:01.728Z,17.88
2022-12-23T00:18:03.252Z,18.08
2022-12-23T00:19:05.281Z,18.70
2022-12-23T00:21:11.116Z,16.13
2022-12-23T00:22:12.527Z,16.75
2022-12-23T00:23:13.945Z,16.85
2022-12-23T00:24:15.344Z,16.98
2022-12-23T00:25:16.864Z,18.10
2022-12-23T00:26:21.381Z,19.00
2022-12-23T00:27:22.766Z,17.27
2022-12-23T00:28:25.674Z,18.45
2022-12-23T00:29:27.103Z,19.02
2022-12-23T00:30:28.647Z,17.52
2022-12-23T00:31:30.109Z,18.15
2022-12-23T00:32:31.646Z,18.67
2022-12-23T00:33:38.778Z,19.60
2022-12-23T00:34:40.212Z,19.95
2022-12-23T00:35:42.914Z,16.83
2022-12-23T00:36:44.412Z,19.60
2022-12-23T00:37:45.848Z,19.77
2022-12-23T00:39:06.162Z,18.13
2022-12-23T00:40:31.399Z,18.50
2022-12-23T00:41:51.672Z,19.30
2022-12-23T00:42:55.697Z,19.42
2022-12-23T00:43:57.844Z,20.13
2022-12-23T00:45:15.603Z,20.05
2022-12-23T00:46:17.538Z,20.80
2022-12-23T00:47:37.422Z,21.05
2022-12-23T00:48:57.104Z,20.83
2022-12-23T00:49:58.546Z,21.02
2022-12-23T00:51:00.128Z,23.10
2022-12-23T00:52:02.164Z,24.23
2022-12-23T00:54:05.293Z,21.20
2022-12-23T00:55:07.252Z,22.65
2022-12-23T00:56:08.690Z,23.48
2022-12-23T00:57:10.385Z,21.52
2022-12-23T00:58:11.829Z,23.75
2022-12-23T00:59:13.242Z,21.45
2022-12-23T01:00:15.355Z,23.50
2022-12-23T01:01:35.869Z,23.08
2022-12-23T01:02:56.822Z,20.23
2022-12-23T01:04:16.975Z,22.63
2022-12-23T01:06:37.849Z,21.40
2022-12-23T01:07:39.269Z,21.70
2022-12-23T01:08:40.793Z,22.20
2022-12-23T01:09:42.307Z,25.60
2022-12-23T01:10:43.719Z,24.23
2022-12-23T01:11:45.147Z,24.83
2022-12-23T01:12:46.572Z,23.88
2022-12-23T01:13:47.988Z,23.63
2022-12-23T01:14:49.831Z,22.55
2022-12-23T01:15:51.289Z,23.60
2022-12-23T01:16:52.791Z,23.35
2022-12-23T01:17:54.326Z,23.25
2022-12-23T01:18:55.744Z,24.58
2022-12-23T01:19:57.192Z,24.40
2022-12-23T01:21:05.335Z,23.73
2022-12-23T01:22:06.795Z,24.55
2022-12-23T01:23:08.259Z,25.90
2022-12-23T01:24:09.827Z,23.38
2022-12-23T01:25:11.444Z,26.60
2022-12-23T01:26:13.043Z,24.13
2022-12-23T01:27:14.510Z,24.77
2022-12-23T01:28:15.908Z,26.75
2022-12-23T01:29:17.390Z,22.52
2022-12-23T01:30:18.944Z,23.23
2022-12-23T01:31:20.454Z,22.88
2022-12-23T01:32:22.021Z,22.88
2022-12-23T01:33:23.747Z,22.40
2022-12-23T01:34:28.475Z,23.60
2022-12-23T01:35:32.601Z,23.67
2022-12-23T01:36:34.070Z,23.08
2022-12-23T01:37:35.524Z,23.25
2022-12-23T01:38:36.971Z,24.70
2022-12-23T01:39:38.419Z,26.52
2022-12-23T01:40:42.326Z,26.23
2022-12-23T01:42:02.141Z,25.25
2022-12-23T01:43:04.035Z,23.00
2022-12-23T01:44:43.128Z,23.67
2022-12-23T01:45:45.036Z,22.20
2022-12-23T01:46:46.495Z,24.25
2022-12-23T01:47:54.239Z,24.08
2022-12-23T01:48:56.513Z,21.67
2022-12-23T01:50:01.309Z,22.73
2022-12-23T01:51:16.284Z,22.67
2022-12-23T01:52:18.267Z,23.90
2022-12-23T01:53:22.385Z,25.00
2022-12-23T01:54:23.860Z,24.50
2022-12-23T01:55:29.155Z,25.70
2022-12-23T01:56:39.721Z,24.90
2022-12-23T01:57:42.897Z,25.73
2022-12-23T01:58:46.484Z,24.98
2022-12-23T02:00:06.596Z,23.92
2022-12-23T02:02:49.452Z,19.55
2022-12-23T02:03:55.775Z,19.60
2022-12-23T02:04:58.013Z,21.50
2022-12-23T02:06:22.304Z,21.25
2022-12-23T02:07:42.096Z,21.95
2022-12-23T02:09:02.459Z,22.50
2022-12-23T02:10:05.256Z,19.83
2022-12-23T02:11:30.137Z,22.15
2022-12-23T02:12:34.346Z,20.58
2022-12-23T02:13:38.805Z,22.38
2022-12-23T02:15:17.225Z,22.13
2022-12-23T02:16:18.811Z,21.42
2022-12-23T02:17:31.972Z,22.33
2022-12-23T02:18:48.611Z,20.63
2022-12-23T02:20:13.523Z,21.38
2022-12-23T02:21:29.760Z,21.52
2022-12-23T02:22:49.995Z,21.10
2022-12-23T02:25:17.396Z,19.20
2022-12-23T02:26:27.834Z,21.65
2022-12-23T02:27:54.454Z,20.05
2022-12-23T02:29:31.681Z,20.70
2022-12-23T02:30:57.652Z,20.05
2022-12-23T02:32:20.474Z,19.80
2022-12-23T02:34:06.959Z,20.20
2022-12-23T02:35:24.759Z,20.00
2022-12-23T02:36:42.820Z,19.77
2022-12-23T02:37:51.313Z,20.70
2022-12-23T02:39:12.619Z,19.98
2022-12-23T02:40:32.894Z,21.08
2022-12-23T02:41:54.470Z,20.13
2022-12-23T02:43:17.383Z,19.63
2022-12-23T02:45:01.786Z,21.10
2022-12-23T02:46:23.415Z,19.33
2022-12-23T02:47:38.080Z,20.67
2022-12-23T02:48:57.997Z,21.00
2022-12-23T02:50:06.127Z,20.10
2022-12-23T02:51:10.812Z,23.85
2022-12-23T02:52:15.388Z,22.77
2022-12-23T02:53:30.003Z,21.52
2022-12-23T02:54:39.440Z,20.52
2022-12-23T02:55:44.277Z,22.27
2022-12-23T02:56:51.001Z,21.00
2022-12-23T02:57:55.494Z,23.40
2022-12-23T02:59:01.601Z,22.98
2022-12-23T03:00:05.434Z,23.58
2022-12-23T03:01:08.136Z,24.17
2022-12-23T03:02:09.888Z,24.02
2022-12-23T03:03:11.624Z,24.77
2022-12-23T03:04:14.701Z,25.88
2022-12-23T03:05:31.150Z,26.15
2022-12-23T03:06:39.299Z,24.40
2022-12-23T03:07:45.616Z,25.48
2022-12-23T03:08:49.677Z,21.27
2022-12-23T03:10:03.109Z,24.65
2022-12-23T03:11:20.269Z,23.60
2022-12-23T03:12:27.862Z,22.58
2022-12-23T03:13:32.263Z,20.90
2022-12-23T03:14:49.705Z,24.02
2022-12-23T03:16:06.395Z,21.42
2022-12-23T03:18:09.182Z,22.85
2022-12-23T03:19:32.411Z,19.30
2022-12-23T03:20:43.142Z,22.20
2022-12-23T03:22:06.264Z,22.25
2022-12-23T03:23:07.599Z,21.98
2022-12-23T03:24:24.501Z,24.00
2022-12-23T03:25:44.902Z,24.08
2022-12-23T03:26:57.544Z,23.90
2022-12-23T03:28:05.946Z,24.88
2022-12-23T03:29:37.912Z,22.90
2022-12-23T03:30:47.465Z,19.52
2022-12-23T03:31:50.629Z,22.98
2022-12-23T03:33:14.071Z,23.13
2022-12-23T03:34:19.870Z,24.98
2022-12-23T03:35:29.963Z,23.98
2022-12-23T03:36:36.891Z,23.35
2022-12-23T03:37:43.812Z,24.25
2022-12-23T03:38:45.873Z,24.23
2022-12-23T03:40:58.196Z,20.92
2022-12-23T03:42:06.039Z,23.75
2022-12-23T03:43:13.877Z,24.25
2022-12-23T03:44:24.245Z,24.58
2022-12-23T03:45:40.359Z,23.58
2022-12-23T03:47:04.793Z,24.65
2022-12-23T03:48:14.949Z,22.15
2022-12-23T03:49:37.964Z,23.58
2022-12-23T03:50:42.760Z,23.83
2022-12-23T03:52:13.459Z,25.13
2022-12-23T03:54:05.160Z,21.52
2022-12-23T03:55:11.624Z,20.42
2022-12-23T03:56:18.987Z,21.65
2022-12-23T03:57:26.030Z,25.73
2022-12-23T03:58:43.018Z,23.77
2022-12-23T03:59:50.424Z,23.85
2022-12-23T04:01:04.527Z,22.38
2022-12-23T04:03:38.008Z,20.40
2022-12-23T04:04:54.285Z,23.23
2022-12-23T04:06:01.643Z,22.67
2022-12-23T04:07:36.849Z,22.10
2022-12-23T04:08:39.615Z,24.23
2022-12-23T04:09:42.552Z,24.70
2022-12-23T04:10:44.203Z,25.45
2022-12-23T04:11:45.827Z,24.10
2022-12-23T04:12:47.862Z,24.38
2022-12-23T04:14:51.640Z,21.92
2022-12-23T04:15:53.391Z,21.88
2022-12-23T04:16:58.375Z,23.15
2022-12-23T04:17:59.916Z,25.58
2022-12-23T04:19:01.349Z,27.08
2022-12-23T04:20:03.016Z,26.40
2022-12-23T04:21:07.147Z,26.83
2022-12-23T04:22:08.610Z,25.17
2022-12-23T04:23:10.471Z,26.15
2022-12-23T04:24:11.971Z,25.50
2022-12-23T04:25:18.177Z,27.88
2022-12-23T04:26:19.610Z,24.40
2022-12-23T04:27:23.822Z,25.95
2022-12-23T04:28:25.243Z,25.60
2022-12-23T04:29:26.696Z,22.40
2022-12-23T04:30:33.966Z,27.30
2022-12-23T04:32:38.043Z,22.58
2022-12-23T04:33:42.320Z,24.95
2022-12-23T04:34:43.746Z,26.67
2022-12-23T04:35:45.253Z,26.13
2022-12-23T04:36:46.728Z,27.13
2022-12-23T04:37:48.772Z,23.38
2022-12-23T04:39:51.614Z,26.48
2022-12-23T04:40:53.080Z,25.38
2022-12-23T04:41:54.698Z,24.08
2022-12-23T04:42:56.145Z,26.40
2022-12-23T04:43:57.585Z,27.50
2022-12-23T04:44:59.166Z,26.90
2022-12-23T04:46:03.652Z,24.27
2022-12-23T04:47:07.130Z,30.08
2022-12-23T04:48:09.289Z,30.25
2022-12-23T04:49:11.015Z,27.02
2022-12-23T04:50:16.828Z,29.55
2022-12-23T04:51:18.259Z,26.33
2022-12-23T04:52:19.989Z,26.23
2022-12-23T04:53:21.548Z,27.25
2022-12-23T04:54:22.986Z,29.50
2022-12-23T04:55:24.455Z,28.05
2022-12-23T04:56:26.041Z,27.90
2022-12-23T04:57:29.512Z,24.73
2022-12-23T04:58:30.915Z,24.88
2022-12-23T04:59:32.450Z,27.17
2022-12-23T05:00:39.504Z,25.70
2022-12-23T05:01:42.533Z,26.45
2022-12-23T05:02:44.383Z,21.88
2022-12-23T05:03:46.705Z,29.17
2022-12-23T05:04:48.136Z,26.27
2022-12-23T05:05:49.517Z,28.48
2022-12-23T05:06:51.005Z,25.92
2022-12-23T05:07:55.434Z,27.25
2022-12-23T05:08:56.854Z,27.20
2022-12-23T05:10:01.673Z,25.45
2022-12-23T05:11:03.639Z,23.08
2022-12-23T05:12:05.127Z,24.08
2022-12-23T05:13:09.081Z,23.02
2022-12-23T05:14:11.351Z,24.27
2022-12-23T05:15:12.756Z,28.95
2022-12-23T05:16:14.388Z,22.20
2022-12-23T05:17:15.847Z,21.63
2022-12-23T05:18:17.771Z,22.92
2022-12-23T05:19:19.187Z,22.10
2022-12-23T05:20:20.614Z,24.98
2022-12-23T05:21:22.026Z,23.75
2022-12-23T05:22:23.443Z,27.67
2022-12-23T05:23:24.885Z,27.38
2022-12-23T05:24:26.343Z,29.63
2022-12-23T05:25:28.998Z,23.98
2022-12-23T05:26:30.427Z,22.25
2022-12-23T05:27:31.849Z,22.50
2022-12-23T05:28:33.547Z,22.75
2022-12-23T05:29:35.219Z,23.38
2022-12-23T05:30:36.701Z,21.92
2022-12-23T05:31:38.183Z,25.23
2022-12-23T05:32:39.673Z,26.80
2022-12-23T05:33:44.198Z,24.20
2022-12-23T05:34:48.688Z,21.83
2022-12-23T05:35:50.614Z,22.80
2022-12-23T05:36:54.763Z,19.10
2022-12-23T05:37:57.620Z,20.60
2022-12-23T05:38:59.036Z,22.23
2022-12-23T05:40:00.550Z,22.42
2022-12-23T05:41:02.861Z,23.98
2022-12-23T05:42:04.467Z,25.92
2022-12-23T05:43:05.896Z,22.10
2022-12-23T05:44:07.414Z,21.58
2022-12-23T05:45:11.353Z,22.55
2022-12-23T05:46:12.822Z,21.95
2022-12-23T05:47:14.371Z,22.40
2022-12-23T05:48:16.242Z,24.55
2022-12-23T05:49:17.662Z,24.40
2022-12-23T05:50:19.083Z,23.83
2022-12-23T05:51:20.594Z,21.38
2022-12-23T05:52:22.076Z,22.95
2022-12-23T05:53:24.575Z,22.05
2022-12-23T05:54:26.052Z,24.13
2022-12-23T05:55:27.551Z,24.55
2022-12-23T05:56:29.034Z,22.48
2022-12-23T05:57:31.950Z,22.33
2022-12-23T05:58:33.385Z,24.73
2022-12-23T05:59:34.850Z,24.65
2022-12-23T06:00:36.788Z,25.23
2022-12-23T06:01:38.333Z,24.27
2022-12-23T06:02:40.290Z,21.63
2022-12-23T06:03:42.019Z,23.35
2022-12-23T06:04:43.517Z,23.10
2022-12-23T06:05:45.070Z,25.27
2022-12-23T06:06:46.472Z,23.67
2022-12-23T06:07:47.900Z,23.90
2022-12-23T06:08:57.518Z,21.00
2022-12-23T06:10:01.045Z,20.48
2022-12-23T06:11:05.588Z,22.10
2022-12-23T06:12:07.249Z,20.35
2022-12-23T06:13:12.239Z,21.13
2022-12-23T06:14:13.742Z,21.08
2022-12-23T06:15:15.759Z,22.70
2022-12-23T06:17:20.519Z,17.95
2022-12-23T06:18:21.924Z,20.60
2022-12-23T06:19:23.356Z,19.63
2022-12-23T06:20:24.796Z,21.85
2022-12-23T06:21:26.539Z,22.65
2022-12-23T06:22:28.043Z,22.50
2022-12-23T06:23:29.714Z,20.85
2022-12-23T06:24:31.117Z,20.75
2022-12-23T06:25:32.546Z,22.80
2022-12-23T06:26:35.917Z,23.13
2022-12-23T06:27:37.292Z,21.05
2022-12-23T06:28:38.756Z,21.20
2022-12-23T06:29:40.294Z,20.42
2022-12-23T06:30:41.725Z,20.80
2022-12-23T06:31:43.240Z,20.77
2022-12-23T06:32:44.786Z,20.33
2022-12-23T06:33:46.224Z,19.98
2022-12-23T06:34:49.538Z,20.25
2022-12-23T06:35:51.028Z,19.27
2022-12-23T06:36:52.466Z,19.02
2022-12-23T06:37:53.892Z,20.17
2022-12-23T06:38:55.532Z,19.65
2022-12-23T06:39:59.699Z,20.77
2022-12-23T06:41:01.585Z,20.83
2022-12-23T06:42:03.187Z,20.10
2022-12-23T06:43:04.609Z,19.77
2022-12-23T06:44:06.551Z,19.27
2022-12-23T06:45:08.628Z,19.15
2022-12-23T06:47:11.475Z,15.77
2022-12-23T06:48:12.968Z,16.67
2022-12-23T06:49:14.469Z,18.33
2022-12-23T06:50:16.093Z,18.02
2022-12-23T06:51:19.909Z,19.20
2022-12-23T06:52:22.903Z,18.83
2022-12-23T06:53:24.332Z,19.67
2022-12-23T06:54:25.735Z,19.98
2022-12-23T06:55:27.186Z,18.55
2022-12-23T06:56:28.655Z,18.35
2022-12-23T06:57:30.111Z,21.15
2022-12-23T06:58:31.718Z,20.40
2022-12-23T06:59:33.224Z,18.48
2022-12-23T07:00:34.656Z,18.58
2022-12-23T07:01:36.171Z,17.85
2022-12-23T07:02:37.847Z,18.92
2022-12-23T07:03:39.325Z,18.23
2022-12-23T07:04:40.757Z,18.80
2022-12-23T07:05:42.165Z,20.25
2022-12-23T07:06:43.740Z,19.00
2022-12-23T07:07:45.197Z,17.95
2022-12-23T07:08:46.599Z,19.08
2022-12-23T07:09:48.073Z,19.20
2022-12-23T07:10:49.577Z,18.70
2022-12-23T07:11:51.020Z,18.77
2022-12-23T07:12:52.420Z,18.75
2022-12-23T07:13:53.811Z,17.05
2022-12-23T07:14:55.219Z,17.48
2022-12-23T07:15:56.714Z,19.33
2022-12-23T07:16:58.353Z,18.00
2022-12-23T07:17:59.816Z,17.98
2022-12-23T07:19:01.221Z,17.23
2022-12-23T07:20:03.680Z,16.85
2022-12-23T07:21:06.431Z,18.70
2022-12-23T07:22:10.413Z,18.33
2022-12-23T07:23:11.817Z,18.20
2022-12-23T07:24:13.233Z,17.15
2022-12-23T07:25:14.706Z,17.27
2022-12-23T07:26:16.323Z,17.55
2022-12-23T07:27:17.757Z,18.60
2022-12-23T07:28:19.214Z,18.90
2022-12-23T07:29:20.580Z,18.02
2022-12-23T07:30:23.381Z,18.67
2022-12-23T07:31:24.872Z,16.88
2022-12-23T07:32:26.322Z,18.15
2022-12-23T07:33:27.741Z,18.70
2022-12-23T07:34:29.264Z,20.85
2022-12-23T07:35:30.677Z,20.05
2022-12-23T07:36:32.089Z,19.67
2022-12-23T07:37:33.571Z,20.95
2022-12-23T07:38:35.022Z,21.17
2022-12-23T07:39:36.592Z,21.40
2022-12-23T07:40:38.086Z,20.33
2022-12-23T07:41:39.528Z,21.20
2022-12-23T07:42:46.595Z,20.95
2022-12-23T07:43:48.506Z,21.45
2022-12-23T07:44:49.899Z,21.05
2022-12-23T07:45:59.248Z,21.40
2022-12-23T07:47:01.639Z,21.25
2022-12-23T07:48:03.164Z,19.83
2022-12-23T07:49:04.805Z,20.20
2022-12-23T07:50:07.045Z,23.08
2022-12-23T07:51:08.931Z,22.92
2022-12-23T07:52:10.347Z,21.92
2022-12-23T07:53:12.108Z,24.17
2022-12-23T07:54:14.044Z,21.55
2022-12-23T07:55:16.122Z,21.08
2022-12-23T07:57:19.567Z,19.92
2022-12-23T07:58:20.962Z,19.85
2022-12-23T07:59:28.269Z,19.50
2022-12-23T08:00:29.719Z,19.25
2022-12-23T08:01:31.250Z,19.83
2022-12-23T08:02:33.245Z,19.45
2022-12-23T08:04:42.574Z,18.20
2022-12-23T08:05:47.125Z,19.17
2022-12-23T08:06:48.602Z,18.27
2022-12-23T08:07:51.616Z,18.35
2022-12-23T08:08:53.087Z,19.17
2022-12-23T08:09:57.364Z,21.00
2022-12-23T08:11:07.328Z,23.65
2022-12-23T08:12:08.804Z,49.28
2022-12-23T08:13:10.200Z,35.85
2022-12-23T08:14:14.310Z,48.05
2022-12-23T08:15:15.731Z,66.45
2022-12-23T08:16:17.256Z,46.63
2022-12-23T08:17:25.610Z,24.15
2022-12-23T08:18:29.153Z,28.95
2022-12-23T08:19:30.563Z,23.48
2022-12-23T08:20:31.988Z,21.83
2022-12-23T08:21:33.432Z,18.38
2022-12-23T08:22:34.892Z,24.80
2022-12-23T08:23:36.357Z,22.30
2022-12-23T08:24:37.858Z,19.50
2022-12-23T08:25:39.276Z,21.42
2022-12-23T08:26:40.741Z,22.05
2022-12-23T08:27:42.141Z,22.65
2022-12-23T08:28:44.813Z,23.20
2022-12-23T08:29:46.311Z,22.30
2022-12-23T08:30:47.788Z,21.80
2022-12-23T08:31:50.400Z,20.80
2022-12-23T08:32:51.816Z,19.55
2022-12-23T08:33:55.621Z,18.90
2022-12-23T08:34:57.630Z,20.25
2022-12-23T08:37:00.615Z,18.55
2022-12-23T08:38:02.013Z,19.13
2022-12-23T08:39:07.478Z,18.50
2022-12-23T08:40:09.397Z,18.90
2022-12-23T08:41:13.428Z,20.17
2022-12-23T08:42:15.245Z,19.40
2022-12-23T08:43:16.683Z,18.98
2022-12-23T08:44:18.313Z,17.13
2022-12-23T08:45:19.827Z,18.80
2022-12-23T08:46:22.142Z,21.25
2022-12-23T08:47:23.632Z,17.58
2022-12-23T08:48:25.048Z,18.20
2022-12-23T08:49:26.484Z,16.42
2022-12-23T08:50:27.913Z,16.15
2022-12-23T08:51:29.478Z,16.23
2022-12-23T08:52:30.891Z,15.68
2022-12-23T08:53:33.294Z,17.70
2022-12-23T08:54:34.747Z,17.50
2022-12-23T08:55:41.249Z,16.52
2022-12-23T08:56:43.336Z,19.98
2022-12-23T08:58:48.731Z,21.90
2022-12-23T08:59:51.726Z,20.85
2022-12-23T09:00:53.169Z,17.48
2022-12-23T09:01:54.824Z,25.00
2022-12-23T09:02:56.465Z,17.88
2022-12-23T09:03:58.383Z,23.38
2022-12-23T09:04:59.863Z,16.58
2022-12-23T09:06:06.704Z,26.20
2022-12-23T09:07:08.128Z,20.70
2022-12-23T09:08:09.603Z,34.45
2022-12-23T09:09:13.269Z,18.48
2022-12-23T09:10:14.747Z,19.60
2022-12-23T09:11:19.283Z,19.88
2022-12-23T09:12:20.728Z,21.67
2022-12-23T09:13:30.795Z,19.67
2022-12-23T09:15:44.818Z,15.68
2022-12-23T09:16:46.264Z,15.90
2022-12-23T09:17:47.697Z,15.95
2022-12-23T09:18:49.202Z,16.60
2022-12-23T09:19:53.255Z,16.40
2022-12-23T09:21:00.019Z,20.15
2022-12-23T09:22:01.469Z,18.83
2022-12-23T09:23:03.874Z,18.38
2022-12-23T09:24:05.739Z,40.22
2022-12-23T09:25:07.677Z,19.52
2022-12-23T09:26:10.418Z,61.83
2022-12-23T09:27:12.233Z,33.72
2022-12-23T09:28:13.667Z,38.47
2022-12-23T09:29:15.201Z,42.67
2022-12-23T09:30:16.724Z,33.83
2022-12-23T09:31:18.758Z,36.60
2022-12-23T09:33:21.854Z,19.77
2022-12-23T09:34:23.365Z,27.70
2022-12-23T09:35:25.467Z,15.60
2022-12-23T09:37:28.306Z,18.25
2022-12-23T09:38:30.039Z,16.13
2022-12-23T09:39:31.665Z,15.57
2022-12-23T09:40:36.444Z,14.82
2022-12-23T09:41:48.420Z,14.48
2022-12-23T09:43:13.195Z,13.23
2022-12-23T09:44:32.273Z,12.02
2022-12-23T09:45:55.800Z,11.85
2022-12-23T09:47:03.014Z,12.82
2022-12-23T09:48:08.638Z,12.05
2022-12-23T09:49:16.680Z,13.20
2022-12-23T09:51:31.457Z,10.05
2022-12-23T09:52:57.675Z,11.90
2022-12-23T09:54:17.476Z,11.65
2022-12-23T09:56:58.032Z,12.57
2022-12-23T09:58:04.582Z,11.18
2022-12-23T09:59:43.613Z,10.05
2022-12-23T10:01:02.158Z,9.82
2022-12-23T10:02:30.059Z,9.85
2022-12-23T10:03:47.669Z,11.05
2022-12-23T10:05:23.445Z,10.70
2022-12-23T10:06:30.492Z,10.70
2022-12-23T10:08:02.184Z,11.73
2022-12-23T10:09:05.137Z,10.00
2022-12-23T10:10:17.794Z,11.25
2022-12-23T10:11:23.992Z,11.27
2022-12-23T10:12:30.721Z,9.95
2022-12-23T10:13:48.842Z,10.75
2022-12-23T10:14:52.544Z,10.93
2022-12-23T10:15:57.843Z,10.05
2022-12-23T10:17:05.038Z,10.02
2022-12-23T10:18:17.987Z,11.27
2022-12-23T10:19:32.065Z,10.38
2022-12-23T10:22:03.451Z,10.90
2022-12-23T10:23:13.899Z,11.02
2022-12-23T10:24:33.552Z,9.93
2022-12-23T10:25:41.266Z,10.55
2022-12-23T10:26:51.290Z,11.27
2022-12-23T10:27:52.839Z,12.13
2022-12-23T10:29:25.049Z,10.50
2022-12-23T10:30:57.271Z,10.77
2022-12-23T10:32:19.379Z,10.35
2022-12-23T10:33:49.327Z,10.25
2022-12-23T10:35:01.031Z,11.98
2022-12-23T10:36:43.343Z,10.65
2022-12-23T10:37:55.083Z,10.60
2022-12-23T10:39:28.089Z,11.38
2022-12-23T10:40:46.781Z,10.55
2022-12-23T10:42:14.811Z,10.73
2022-12-23T10:43:25.015Z,11.52
2022-12-23T10:44:47.709Z,11.40
2022-12-23T10:46:20.408Z,10.15
2022-12-23T10:47:38.826Z,10.48
2022-12-23T10:48:52.299Z,10.13
2022-12-23T10:50:27.997Z,10.65
2022-12-23T10:51:49.706Z,9.85
2022-12-23T10:52:52.793Z,10.18
2022-12-23T10:53:59.828Z,10.57
2022-12-23T10:55:01.558Z,10.75
2022-12-23T10:56:04.040Z,10.85
2022-12-23T10:57:07.009Z,11.13
2022-12-23T10:58:18.238Z,10.57
2022-12-23T10:59:26.366Z,10.48
2022-12-23T11:00:28.011Z,10.77
2022-12-23T11:01:31.598Z,10.55
2022-12-23T11:02:51.921Z,9.48
2022-12-23T11:04:06.318Z,8.82
2022-12-23T11:05:19.913Z,9.80
2022-12-23T11:06:22.107Z,11.07
2022-12-23T11:07:44.695Z,9.88
2022-12-23T11:08:47.507Z,9.43
2022-12-23T11:09:54.056Z,10.38
2022-12-23T11:10:56.032Z,9.25
2022-12-23T11:13:02.735Z,9.85
2022-12-23T11:14:49.935Z,10.75
2022-12-23T11:15:52.512Z,8.75
2022-12-23T11:16:54.080Z,9.43
2022-12-23T11:18:13.911Z,11.00
2022-12-23T11:19:15.908Z,10.52
2022-12-23T11:21:20.067Z,8.70
2022-12-23T11:22:24.894Z,10.43
2022-12-23T11:23:30.613Z,9.20
2022-12-23T11:24:35.467Z,9.20
2022-12-23T11:25:43.756Z,9.27
2022-12-23T11:26:48.821Z,8.60
2022-12-23T11:27:59.142Z,8.60
2022-12-23T11:29:07.052Z,9.05
2022-12-23T11:30:18.390Z,8.68
2022-12-23T11:31:38.920Z,8.68
2022-12-23T11:32:42.670Z,9.10
2022-12-23T11:34:00.500Z,8.25
2022-12-23T11:35:02.086Z,8.82
2022-12-23T11:36:14.508Z,9.45
2022-12-23T11:37:45.518Z,9.13
2022-12-23T11:38:53.470Z,9.23
2022-12-23T11:39:55.046Z,9.85
2022-12-23T11:40:56.921Z,10.35
2022-12-23T11:42:20.351Z,10.77
2022-12-23T11:43:25.341Z,9.82
2022-12-23T11:44:30.719Z,10.13
2022-12-23T11:45:35.732Z,8.77
2022-12-23T11:46:38.464Z,9.27
2022-12-23T11:47:41.771Z,10.88
2022-12-23T11:48:43.231Z,11.25
2022-12-23T11:49:51.716Z,10.55
2022-12-23T11:51:04.392Z,10.38
2022-12-23T11:52:05.785Z,10.50
2022-12-23T11:53:21.194Z,11.27
2022-12-23T11:54:22.692Z,9.73
2022-12-23T11:55:29.029Z,10.45
2022-12-23T11:56:39.005Z,9.35
2022-12-23T11:57:48.300Z,11.68
2022-12-23T11:59:03.700Z,9.45
2022-12-23T12:00:08.685Z,10.77
2022-12-23T12:01:18.723Z,10.43
2022-12-23T12:02:58.599Z,10.68
2022-12-23T12:04:03.161Z,9.35
2022-12-23T12:05:16.986Z,11.32
2022-12-23T12:06:19.781Z,11.00
2022-12-23T12:07:21.555Z,10.50
2022-12-23T12:08:28.165Z,11.27
2022-12-23T12:09:32.158Z,11.52
2022-12-23T12:10:37.335Z,11.68
2022-12-23T12:11:48.478Z,11.85
2022-12-23T12:12:55.549Z,13.00
2022-12-23T12:14:03.268Z,12.25
2022-12-23T12:15:06.451Z,11.85
2022-12-23T12:16:38.918Z,11.82
2022-12-23T12:17:46.962Z,11.40
2022-12-23T12:18:55.704Z,12.90
2022-12-23T12:20:04.732Z,12.27
2022-12-23T12:21:13.259Z,11.85
2022-12-23T12:22:57.268Z,12.18
2022-12-23T12:25:39.568Z,11.88
2022-12-23T12:26:44.094Z,13.02
2022-12-23T12:28:00.595Z,13.48
2022-12-23T12:29:22.571Z,12.75
2022-12-23T12:30:30.280Z,13.05
2022-12-23T12:31:37.695Z,13.25
2022-12-23T12:32:59.805Z,12.45
2022-12-23T12:34:01.181Z,13.20
2022-12-23T12:35:08.622Z,13.50
2022-12-23T12:36:28.629Z,13.52
2022-12-23T12:38:39.180Z,12.57
2022-12-23T12:39:53.427Z,12.48
2022-12-23T12:41:16.063Z,12.45
2022-12-23T12:42:25.817Z,11.70
2022-12-23T12:43:31.506Z,12.85
2022-12-23T12:44:37.872Z,12.35
2022-12-23T12:45:50.252Z,12.20
2022-12-23T12:47:44.635Z,11.73
2022-12-23T12:48:55.829Z,11.55
2022-12-23T12:50:02.039Z,12.07
2022-12-23T12:51:16.066Z,12.88
2022-12-23T12:53:23.900Z,11.90
2022-12-23T12:55:35.200Z,11.98
2022-12-23T12:56:48.429Z,11.20
2022-12-23T12:57:49.876Z,12.13
2022-12-23T12:58:51.298Z,11.95
2022-12-23T13:00:05.575Z,11.90
2022-12-23T13:01:17.306Z,13.07
2022-12-23T13:02:52.291Z,11.48
2022-12-23T13:04:02.566Z,11.73
2022-12-23T13:05:16.271Z,11.38
2022-12-23T13:06:43.582Z,11.75
2022-12-23T13:08:03.253Z,10.75
2022-12-23T13:09:21.562Z,10.38
2022-12-23T13:10:31.723Z,10.90
2022-12-23T13:11:48.208Z,10.70
2022-12-23T13:13:07.864Z,11.20
2022-12-23T13:14:50.775Z,10.90
2022-12-23T13:16:06.672Z,11.20
2022-12-23T13:17:28.782Z,10.70
2022-12-23T13:18:56.479Z,10.85
2022-12-23T13:20:33.622Z,7.60
2022-12-23T13:21:43.037Z,8.10
2022-12-23T13:22:49.301Z,7.20
2022-12-23T13:24:09.579Z,8.10
2022-12-23T13:25:20.488Z,7.00
2022-12-23T13:26:58.559Z,7.05
2022-12-23T13:29:44.415Z,7.55
2022-12-23T13:30:57.230Z,7.60
2022-12-23T13:32:04.504Z,8.27
2022-12-23T13:33:18.044Z,8.55
2022-12-23T13:34:42.200Z,9.10
2022-12-23T13:35:52.789Z,7.82
2022-12-23T13:37:03.763Z,7.43
2022-12-23T13:38:10.999Z,7.82
2022-12-23T13:39:34.426Z,7.32
2022-12-23T13:41:00.905Z,7.80
2022-12-23T13:42:05.955Z,7.57
2022-12-23T13:43:18.806Z,7.88
2022-12-23T13:44:21.353Z,7.50
2022-12-23T13:45:30.658Z,7.72
2022-12-23T13:46:51.809Z,7.40
2022-12-23T13:48:18.444Z,7.95
2022-12-23T13:49:44.914Z,7.55
2022-12-23T13:51:15.637Z,8.05
2022-12-23T13:52:29.477Z,8.15
2022-12-23T13:53:48.453Z,8.63
2022-12-23T13:55:34.504Z,8.30
2022-12-23T13:56:45.163Z,8.50
2022-12-23T13:58:15.843Z,8.75
2022-12-23T13:59:17.307Z,9.45
2022-12-23T14:00:24.420Z,9.55
2022-12-23T14:01:41.280Z,8.93
2022-12-23T14:02:57.941Z,8.80
2022-12-23T14:04:33.511Z,9.32
2022-12-23T14:05:52.743Z,8.98
2022-12-23T14:06:57.199Z,9.30
2022-12-23T14:08:04.716Z,9.52
2022-12-23T14:09:06.362Z,9.73
2022-12-23T14:10:19.616Z,9.82
2022-12-23T14:11:38.890Z,9.70
2022-12-23T14:12:42.534Z,9.75
2022-12-23T14:13:49.805Z,9.30
2022-12-23T14:15:16.115Z,9.48
2022-12-23T14:16:36.283Z,9.30
2022-12-23T14:17:51.881Z,9.85
2022-12-23T14:19:05.249Z,9.25
2022-12-23T14:20:37.711Z,9.38
2022-12-23T14:21:48.545Z,9.25
2022-12-23T14:23:04.105Z,10.00
2022-12-23T14:24:27.218Z,10.25
2022-12-23T14:25:50.520Z,10.20
2022-12-23T14:27:29.219Z,10.23
2022-12-23T14:28:49.768Z,10.05
2022-12-23T14:30:09.948Z,10.02
2022-12-23T14:31:57.581Z,9.57
2022-12-23T14:33:01.925Z,10.07
2022-12-23T14:34:31.206Z,11.13
2022-12-23T14:35:38.557Z,11.00
2022-12-23T14:37:20.777Z,10.85
2022-12-23T14:38:34.588Z,9.35
2022-12-23T14:39:36.063Z,11.05
2022-12-23T14:40:37.478Z,11.48
2022-12-23T14:41:48.698Z,11.98
2022-12-23T14:42:50.175Z,10.70
2022-12-23T14:43:56.185Z,11.25
2022-12-23T14:45:36.177Z,10.70
2022-12-23T14:46:37.634Z,11.15
2022-12-23T14:47:40.451Z,11.40
2022-12-23T14:48:42.132Z,11.38
2022-12-23T14:49:43.997Z,11.52
2022-12-23T14:51:01.968Z,12.18
2022-12-23T14:52:44.332Z,11.57
2022-12-23T14:53:52.369Z,10.10
2022-12-23T14:55:28.003Z,10.77
2022-12-23T14:56:15.258Z,10.60
2022-12-23T14:57:25.749Z,11.77
2022-12-23T14:58:37.630Z,10.80
2022-12-23T14:59:51.305Z,11.15
2022-12-23T15:01:00.735Z,11.27
2022-12-23T15:02:14.449Z,11.73
2022-12-23T15:03:17.660Z,11.52
2022-12-23T15:04:27.020Z,11.00
2022-12-23T15:05:28.517Z,10.93
2022-12-23T15:06:37.883Z,11.30
2022-12-23T15:07:43.363Z,11.45
2022-12-23T15:08:47.568Z,11.75
2022-12-23T15:10:00.711Z,11.70
2022-12-23T15:11:04.089Z,11.23
2022-12-23T15:12:14.005Z,11.52
2022-12-23T15:13:17.914Z,11.77
2022-12-23T15:14:51.761Z,12.55